createdAt,value
2024-01-26T00:02:05.797Z,28.00
2024-01-26T00:04:32.839Z,22.00
2024-01-26T00:07:00.284Z,13.00
2024-01-26T00:09:27.046Z,7.00
2024-01-26T00:11:54.766Z,7.20
2024-01-26T00:14:21.399Z,5.00
2024-01-26T00:16:48.040Z,5.00
2024-01-26T00:19:14.732Z,5.00
2024-01-26T00:21:41.445Z,5.00
2024-01-26T00:24:07.992Z,5.60
2024-01-26T00:26:34.831Z,5.00
2024-01-26T00:29:01.408Z,4.80
2024-01-26T00:31:28.177Z,4.20
2024-01-26T00:33:54.927Z,4.80
2024-01-26T00:36:23.060Z,5.00
2024-01-26T00:38:49.598Z,4.50
2024-01-26T00:41:16.249Z,5.00
2024-01-26T00:43:42.785Z,6.00
2024-01-26T00:46:09.727Z,5.20
2024-01-26T00:48:38.930Z,7.00
2024-01-26T00:51:07.894Z,7.00
2024-01-26T00:53:34.700Z,5.40
2024-01-26T00:56:02.371Z,5.00
2024-01-26T00:58:30.162Z,5.00
2024-01-26T01:00:57.564Z,5.00
2024-01-26T01:03:25.386Z,3.60
2024-01-26T01:05:52.219Z,5.33
2024-01-26T01:08:18.963Z,4.40
2024-01-26T01:10:45.557Z,5.50
2024-01-26T01:13:12.085Z,4.20
2024-01-26T01:15:41.624Z,5.00
2024-01-26T01:18:08.704Z,5.00
2024-01-26T01:20:35.730Z,6.00
2024-01-26T01:23:02.282Z,4.40
2024-01-26T01:25:28.748Z,5.75
2024-01-26T01:27:55.186Z,5.80
2024-01-26T01:30:22.180Z,5.00
2024-01-26T01:32:48.805Z,4.80
2024-01-26T01:35:16.028Z,3.50
2024-01-26T01:37:42.559Z,4.40
2024-01-26T01:40:09.749Z,5.67
2024-01-26T01:42:37.787Z,5.60
2024-01-26T01:45:11.473Z,4.40
2024-01-26T01:47:39.914Z,5.40
2024-01-26T01:50:07.322Z,5.00
2024-01-26T01:52:35.089Z,4.20
2024-01-26T01:55:03.629Z,5.00
2024-01-26T01:57:32.636Z,5.25
2024-01-26T01:59:59.275Z,4.00
2024-01-26T02:02:27.055Z,5.00
2024-01-26T02:04:53.917Z,4.00
2024-01-26T02:07:20.760Z,3.00
2024-01-26T02:09:47.330Z,4.00
2024-01-26T02:12:14.676Z,5.00
2024-01-26T02:14:41.769Z,6.00
2024-01-26T02:17:08.551Z,5.00
2024-01-26T02:19:35.221Z,5.00
2024-01-26T02:22:01.991Z,4.60
2024-01-26T02:24:28.563Z,4.00
2024-01-26T02:26:56.309Z,6.00
2024-01-26T02:29:22.885Z,3.33
2024-01-26T02:31:50.214Z,5.00
2024-01-26T02:34:17.063Z,5.00
2024-01-26T02:36:43.664Z,5.00
2024-01-26T02:39:11.663Z,5.40
2024-01-26T02:41:38.471Z,4.00
2024-01-26T02:44:06.148Z,5.00
2024-01-26T02:46:32.842Z,5.50
2024-01-26T02:48:59.689Z,4.20
2024-01-26T02:51:26.207Z,6.00
2024-01-26T02:53:52.718Z,5.00
2024-01-26T02:56:19.431Z,4.00
2024-01-26T02:58:45.843Z,4.60
2024-01-26T03:01:13.391Z,4.25
2024-01-26T03:03:39.989Z,7.00
2024-01-26T03:06:07.556Z,5.40
2024-01-26T03:08:34.324Z,5.00
2024-01-26T03:11:01.034Z,3.00
2024-01-26T03:13:27.517Z,5.00
2024-01-26T03:15:54.021Z,5.00
2024-01-26T03:18:20.740Z,6.00
2024-01-26T03:20:47.640Z,5.00
2024-01-26T03:23:14.578Z,5.25
2024-01-26T03:25:41.594Z,5.00
2024-01-26T03:28:08.633Z,4.80
2024-01-26T03:30:37.974Z,4.20
2024-01-26T03:33:05.356Z,4.00
2024-01-26T03:35:34.494Z,5.00
2024-01-26T03:38:00.971Z,5.00
2024-01-26T03:40:29.283Z,4.40
2024-01-26T03:42:55.879Z,5.00
2024-01-26T03:45:22.458Z,5.60
2024-01-26T03:47:49.209Z,5.00
2024-01-26T03:50:17.941Z,6.40
2024-01-26T03:52:46.103Z,4.50
2024-01-26T03:55:12.655Z,5.00
2024-01-26T03:57:47.936Z,5.50
2024-01-26T04:00:16.521Z,5.00
2024-01-26T04:02:43.651Z,4.60
2024-01-26T04:05:10.516Z,5.20
2024-01-26T04:07:37.309Z,5.00
2024-01-26T04:10:05.940Z,4.75
2024-01-26T04:12:33.076Z,5.00
2024-01-26T04:14:59.702Z,6.40
2024-01-26T04:17:27.756Z,5.00
2024-01-26T04:19:54.248Z,6.00
2024-01-26T04:22:20.866Z,4.50
2024-01-26T04:24:47.550Z,5.00
2024-01-26T04:27:15.080Z,5.75
2024-01-26T04:29:42.361Z,5.00
2024-01-26T04:32:09.318Z,5.00
2024-01-26T04:34:39.368Z,5.00
2024-01-26T04:37:08.367Z,3.50
2024-01-26T04:39:35.093Z,4.00
2024-01-26T04:42:01.687Z,5.40
2024-01-26T04:44:28.222Z,4.00
2024-01-26T04:46:56.487Z,5.80
2024-01-26T04:49:23.308Z,5.00
2024-01-26T04:51:50.792Z,5.00
2024-01-26T04:54:17.390Z,4.60
2024-01-26T04:56:44.363Z,6.00
2024-01-26T04:59:11.020Z,6.00
2024-01-26T05:01:38.332Z,6.00
2024-01-26T05:04:05.391Z,5.60
2024-01-26T05:06:32.144Z,6.00
2024-01-26T05:08:58.816Z,5.40
2024-01-26T05:11:25.488Z,5.00
2024-01-26T05:13:52.375Z,5.60
2024-01-26T05:16:18.819Z,7.00
2024-01-26T05:18:45.389Z,6.00
2024-01-26T05:21:12.018Z,7.00
2024-01-26T05:23:38.528Z,5.75
2024-01-26T05:26:05.445Z,4.00
2024-01-26T05:28:32.802Z,5.20
2024-01-26T05:30:59.554Z,6.00
2024-01-26T05:33:26.324Z,4.80
2024-01-26T05:35:53.406Z,5.50
2024-01-26T05:38:20.356Z,5.60
2024-01-26T05:40:48.679Z,6.00
2024-01-26T05:43:15.410Z,5.60
2024-01-26T05:45:42.004Z,6.00
2024-01-26T05:48:08.713Z,7.00
2024-01-26T05:50:39.332Z,6.40
2024-01-26T05:53:06.903Z,6.40
2024-01-26T05:55:35.467Z,6.50
2024-01-26T05:58:02.200Z,7.00
2024-01-26T06:00:28.886Z,24.00
2024-01-26T06:02:55.473Z,25.40
2024-01-26T06:05:22.154Z,18.60
2024-01-26T06:07:48.912Z,11.80
2024-01-26T06:10:16.859Z,7.00
2024-01-26T06:12:45.393Z,7.00
2024-01-26T06:15:12.137Z,5.25
2024-01-26T06:17:40.020Z,12.00
2024-01-26T06:20:07.873Z,6.60
2024-01-26T06:22:34.463Z,6.00
2024-01-26T06:25:01.256Z,5.40
2024-01-26T06:27:27.857Z,7.00
2024-01-26T06:29:54.342Z,4.00
2024-01-26T06:32:21.957Z,5.00
2024-01-26T06:34:48.743Z,6.00
2024-01-26T06:37:15.269Z,8.40
2024-01-26T06:39:41.687Z,6.00
2024-01-26T06:42:08.540Z,5.60
2024-01-26T06:44:35.785Z,4.60
2024-01-26T06:47:02.409Z,7.00
2024-01-26T06:49:29.949Z,6.00
2024-01-26T06:51:56.433Z,6.00
2024-01-26T06:54:22.930Z,6.00
2024-01-26T06:56:49.449Z,7.00
2024-01-26T06:59:18.335Z,6.40
2024-01-26T07:01:50.213Z,7.00
2024-01-26T07:04:20.935Z,6.25
2024-01-26T07:06:52.202Z,5.00
2024-01-26T07:09:19.146Z,5.50
2024-01-26T07:11:46.001Z,6.60
2024-01-26T07:14:13.718Z,6.60
2024-01-26T07:16:41.689Z,6.75
2024-01-26T07:19:08.954Z,8.00
2024-01-26T07:21:35.656Z,9.00
2024-01-26T07:24:03.261Z,14.00
2024-01-26T07:26:30.242Z,16.00
2024-01-26T07:28:57.009Z,18.00
2024-01-26T07:31:23.499Z,15.00
2024-01-26T07:33:50.006Z,10.00
2024-01-26T07:36:17.599Z,7.00
2024-01-26T07:38:44.332Z,5.50
2024-01-26T07:41:10.775Z,11.00
2024-01-26T07:43:37.177Z,12.50
2024-01-26T07:46:03.666Z,7.67
2024-01-26T07:48:30.306Z,7.00
2024-01-26T07:50:56.788Z,5.00
2024-01-26T07:53:23.200Z,6.00
2024-01-26T07:55:49.639Z,5.50
2024-01-26T07:58:16.051Z,5.00
2024-01-26T08:00:42.815Z,6.20
2024-01-26T08:03:09.566Z,5.75
2024-01-26T08:05:36.321Z,5.80
2024-01-26T08:08:02.863Z,8.67
2024-01-26T08:10:29.332Z,4.60
2024-01-26T08:12:55.802Z,6.00
2024-01-26T08:15:22.508Z,6.40
2024-01-26T08:17:49.206Z,5.00
2024-01-26T08:20:17.017Z,5.00
2024-01-26T08:22:44.761Z,5.00
2024-01-26T08:25:12.265Z,13.00
2024-01-26T08:27:39.528Z,7.00
2024-01-26T08:30:06.374Z,7.00
2024-01-26T08:32:32.991Z,10.00
2024-01-26T08:34:59.701Z,9.00
2024-01-26T08:37:26.366Z,6.00
2024-01-26T08:39:52.777Z,5.25
2024-01-26T08:42:19.289Z,4.60
2024-01-26T08:44:45.818Z,5.00
2024-01-26T08:47:12.398Z,3.20
2024-01-26T08:49:39.037Z,4.00
2024-01-26T08:52:06.669Z,4.00
2024-01-26T08:54:33.450Z,3.00
2024-01-26T08:56:59.933Z,3.00
2024-01-26T08:59:26.387Z,3.00
2024-01-26T09:01:52.848Z,2.60
2024-01-26T09:04:19.448Z,3.40
2024-01-26T09:06:49.685Z,3.00
2024-01-26T09:09:18.676Z,3.00
2024-01-26T09:11:45.440Z,3.40
2024-01-26T09:14:11.897Z,3.00
2024-01-26T09:16:38.320Z,2.50
2024-01-26T09:19:05.082Z,2.60
2024-01-26T09:21:31.906Z,2.40
2024-01-26T09:23:58.609Z,3.00
2024-01-26T09:26:25.092Z,2.00
2024-01-26T09:28:51.503Z,3.00
2024-01-26T09:31:19.802Z,4.00
2024-01-26T09:33:46.519Z,1.00
2024-01-26T09:36:13.119Z,3.00
2024-01-26T09:38:39.730Z,2.60
2024-01-26T09:41:06.255Z,4.60
2024-01-26T09:43:32.848Z,4.00
2024-01-26T09:45:59.539Z,4.00
2024-01-26T09:48:26.974Z,3.00
2024-01-26T09:50:53.814Z,3.00
2024-01-26T09:53:20.392Z,3.40
2024-01-26T09:55:47.902Z,2.00
2024-01-26T09:58:15.879Z,1.60
2024-01-26T10:00:47.164Z,3.00
2024-01-26T10:03:14.002Z,4.50
2024-01-26T10:05:41.080Z,1.40
2024-01-26T10:08:10.630Z,2.00
2024-01-26T10:10:37.073Z,3.20
2024-01-26T10:13:09.352Z,1.25
2024-01-26T10:15:35.844Z,2.00
2024-01-26T10:18:03.444Z,3.00
2024-01-26T10:20:30.342Z,2.00
2024-01-26T10:22:57.090Z,3.00
2024-01-26T10:25:23.980Z,2.00
2024-01-26T10:27:51.119Z,2.20
2024-01-26T10:30:20.489Z,2.80
2024-01-26T10:32:48.076Z,3.00
2024-01-26T10:35:16.087Z,3.20
2024-01-26T10:37:44.638Z,4.00
2024-01-26T10:40:12.089Z,3.00
2024-01-26T10:42:39.252Z,3.00
2024-01-26T10:45:10.625Z,3.00
2024-01-26T10:47:40.083Z,2.40
2024-01-26T10:50:07.723Z,2.25
2024-01-26T10:52:38.845Z,2.00
2024-01-26T10:55:06.536Z,3.00
2024-01-26T10:57:33.057Z,3.00
2024-01-26T10:59:59.696Z,3.25
2024-01-26T11:02:28.544Z,3.00
2024-01-26T11:04:54.993Z,2.50
2024-01-26T11:07:21.509Z,0.50
2024-01-26T11:09:48.191Z,3.00
2024-01-26T11:12:26.409Z,2.80
2024-01-26T11:15:12.328Z,3.00
2024-01-26T11:17:52.362Z,3.00
2024-01-26T11:20:22.921Z,2.25
2024-01-26T11:23:12.280Z,3.00
2024-01-26T11:25:39.705Z,1.75
2024-01-26T11:28:07.196Z,1.80
2024-01-26T11:30:34.156Z,1.00
2024-01-26T11:33:01.240Z,1.80
2024-01-26T11:35:28.033Z,2.00
2024-01-26T11:37:55.721Z,3.00
2024-01-26T11:40:24.653Z,2.00
2024-01-26T11:42:53.387Z,2.40
2024-01-26T11:45:28.938Z,3.00
2024-01-26T11:47:55.567Z,1.60
2024-01-26T11:50:22.105Z,2.60
2024-01-26T11:52:49.673Z,1.75
2024-01-26T11:55:16.549Z,1.60
2024-01-26T11:57:43.198Z,2.60
2024-01-26T12:00:13.962Z,2.00
2024-01-26T12:02:40.936Z,1.40
2024-01-26T12:05:08.026Z,2.00
2024-01-26T12:07:35.794Z,2.00
2024-01-26T12:10:02.641Z,4.60
2024-01-26T12:12:29.264Z,2.00
2024-01-26T12:14:55.913Z,1.50
2024-01-26T12:17:22.353Z,2.00
2024-01-26T12:19:50.528Z,3.00
2024-01-26T12:22:18.451Z,1.80
2024-01-26T12:24:45.099Z,2.00
2024-01-26T12:27:11.701Z,2.50
2024-01-26T12:29:38.413Z,1.80
2024-01-26T12:32:05.724Z,21.00
2024-01-26T12:34:35.105Z,2.60
2024-01-26T12:37:01.718Z,2.00
2024-01-26T12:39:29.615Z,2.00
2024-01-26T12:41:56.832Z,1.20
2024-01-26T12:44:32.742Z,1.40
2024-01-26T12:47:00.029Z,1.75
2024-01-26T12:49:26.981Z,0.00
2024-01-26T12:51:54.607Z,1.80
2024-01-26T12:54:21.605Z,2.00
2024-01-26T12:56:48.412Z,1.00
2024-01-26T12:59:14.975Z,2.00
2024-01-26T13:01:42.119Z,0.40
2024-01-26T13:04:08.700Z,1.00
2024-01-26T13:06:35.958Z,2.00
2024-01-26T13:09:05.379Z,1.00
2024-01-26T13:11:32.143Z,0.75
2024-01-26T13:13:58.686Z,2.00
2024-01-26T13:16:25.083Z,1.80
2024-01-26T13:18:51.601Z,2.00
2024-01-26T13:21:18.739Z,1.00
2024-01-26T13:23:45.480Z,1.40
2024-01-26T13:26:13.431Z,2.00
2024-01-26T13:28:39.909Z,2.50
2024-01-26T13:31:06.708Z,1.40
2024-01-26T13:33:33.883Z,3.00
2024-01-26T13:36:01.808Z,2.00
2024-01-26T13:38:31.229Z,2.00
2024-01-26T13:40:58.270Z,2.00
2024-01-26T13:43:28.165Z,2.60
2024-01-26T13:45:55.426Z,1.00
2024-01-26T13:48:22.648Z,2.00
2024-01-26T13:50:50.197Z,2.00
2024-01-26T13:53:17.472Z,2.40
2024-01-26T13:55:43.941Z,2.00
2024-01-26T13:58:10.427Z,2.33
2024-01-26T14:00:36.872Z,3.40
2024-01-26T14:03:04.619Z,2.50
2024-01-26T14:05:31.609Z,0.00
2024-01-26T14:07:58.839Z,3.00
2024-01-26T14:10:26.749Z,2.00
2024-01-26T14:12:53.199Z,2.00
2024-01-26T14:15:21.194Z,1.40
2024-01-26T14:17:48.938Z,1.50
2024-01-26T14:20:16.841Z,1.00
2024-01-26T14:22:43.468Z,2.80
2024-01-26T14:25:10.024Z,2.00
2024-01-26T14:27:36.478Z,1.00
2024-01-26T14:30:04.416Z,2.00
2024-01-26T14:32:32.909Z,2.00
2024-01-26T14:34:59.527Z,4.25
2024-01-26T14:37:26.131Z,6.00
2024-01-26T14:39:52.553Z,4.00
2024-01-26T14:42:19.140Z,4.00
2024-01-26T14:44:46.862Z,2.00
2024-01-26T14:47:14.174Z,2.00
2024-01-26T14:49:44.834Z,3.00
2024-01-26T14:52:12.024Z,2.20
2024-01-26T14:54:38.499Z,1.00
2024-01-26T14:57:05.130Z,2.00
2024-01-26T14:59:31.563Z,2.00
2024-01-26T15:01:58.603Z,1.00
2024-01-26T15:04:25.077Z,1.60
2024-01-26T15:06:52.187Z,2.00
2024-01-26T15:09:18.733Z,1.40
2024-01-26T15:11:45.411Z,1.60
2024-01-26T15:14:11.927Z,1.00
2024-01-26T15:16:39.465Z,2.75
2024-01-26T15:19:06.086Z,0.75
2024-01-26T15:21:32.654Z,3.00
2024-01-26T15:23:59.390Z,1.25
2024-01-26T15:26:26.275Z,2.00
2024-01-26T15:28:52.732Z,2.00
2024-01-26T15:31:23.634Z,0.50
2024-01-26T15:33:50.329Z,2.00
2024-01-26T15:36:17.033Z,2.80
2024-01-26T15:38:43.968Z,2.40
2024-01-26T15:41:10.401Z,2.00
2024-01-26T15:43:36.834Z,3.00
2024-01-26T15:46:03.284Z,4.00
2024-01-26T15:48:30.902Z,2.20
2024-01-26T15:50:59.380Z,2.00
2024-01-26T15:53:25.829Z,3.00
2024-01-26T15:55:52.226Z,3.00
2024-01-26T15:58:18.719Z,3.00
2024-01-26T16:00:45.711Z,2.00
2024-01-26T16:03:12.866Z,3.80
2024-01-26T16:05:39.531Z,3.00
2024-01-26T16:08:06.164Z,2.00
2024-01-26T16:10:32.552Z,1.25
2024-01-26T16:12:59.085Z,2.20
2024-01-26T16:15:25.854Z,1.00
2024-01-26T16:17:52.545Z,2.00
2024-01-26T16:20:20.096Z,2.00
2024-01-26T16:22:47.144Z,1.40
2024-01-26T16:25:13.606Z,1.00
2024-01-26T16:27:40.035Z,3.00
2024-01-26T16:30:08.357Z,4.00
2024-01-26T16:32:35.027Z,3.00
2024-01-26T16:35:01.626Z,1.25
2024-01-26T16:37:29.852Z,3.60
2024-01-26T16:39:58.396Z,2.60
2024-01-26T16:42:24.956Z,2.00
2024-01-26T16:44:51.815Z,1.60
2024-01-26T16:47:18.409Z,3.00
2024-01-26T16:49:46.585Z,3.00
2024-01-26T16:52:13.116Z,5.25
2024-01-26T16:54:40.497Z,4.00
2024-01-26T16:57:07.099Z,2.50
2024-01-26T16:59:33.753Z,3.00
2024-01-26T17:02:00.239Z,3.00
2024-01-26T17:04:26.733Z,2.80
2024-01-26T17:06:54.445Z,3.00
2024-01-26T17:09:21.006Z,2.40
2024-01-26T17:11:47.854Z,2.20
2024-01-26T17:14:14.374Z,2.50
2024-01-26T17:16:41.008Z,2.00
2024-01-26T17:19:07.607Z,2.00
2024-01-26T17:21:34.084Z,3.00
2024-01-26T17:24:00.529Z,2.00
2024-01-26T17:26:26.984Z,4.00
2024-01-26T17:28:53.414Z,2.20
2024-01-26T17:31:20.269Z,2.00
2024-01-26T17:33:47.921Z,1.40
2024-01-26T17:36:14.679Z,2.80
2024-01-26T17:38:41.187Z,1.75
2024-01-26T17:41:07.686Z,3.40
2024-01-26T17:43:34.257Z,2.00
2024-01-26T17:46:00.755Z,3.00
2024-01-26T17:48:27.298Z,2.40
2024-01-26T17:50:53.843Z,3.60
2024-01-26T17:53:20.270Z,2.25
2024-01-26T17:55:46.828Z,1.75
2024-01-26T17:58:13.318Z,2.00
2024-01-26T18:00:39.867Z,1.60
2024-01-26T18:03:07.277Z,2.60
2024-01-26T18:05:34.149Z,3.00
2024-01-26T18:08:00.617Z,3.00
2024-01-26T18:10:27.903Z,2.00
2024-01-26T18:12:54.398Z,2.00
2024-01-26T18:15:20.952Z,2.00
2024-01-26T18:17:47.800Z,2.00
2024-01-26T18:20:14.722Z,3.40
2024-01-26T18:22:41.182Z,3.00
2024-01-26T18:25:08.513Z,5.00
2024-01-26T18:27:35.264Z,4.00
2024-01-26T18:30:01.919Z,5.00
2024-01-26T18:32:28.540Z,4.00
2024-01-26T18:34:55.090Z,4.40
2024-01-26T18:37:21.550Z,2.40
2024-01-26T18:39:48.026Z,2.00
2024-01-26T18:42:15.372Z,2.00
2024-01-26T18:44:41.946Z,2.00
2024-01-26T18:47:08.501Z,3.00
2024-01-26T18:49:35.132Z,3.00
2024-01-26T18:52:02.154Z,2.75
2024-01-26T18:54:28.689Z,2.00
2024-01-26T18:56:55.279Z,2.00
2024-01-26T18:59:23.174Z,3.00
2024-01-26T19:01:56.470Z,4.00
2024-01-26T19:04:23.847Z,3.00
2024-01-26T19:06:50.579Z,3.50
2024-01-26T19:09:17.425Z,3.00
2024-01-26T19:11:45.363Z,3.00
2024-01-26T19:14:11.889Z,2.00
2024-01-26T19:16:38.416Z,4.00
2024-01-26T19:19:05.084Z,2.50
2024-01-26T19:21:31.689Z,2.00
2024-01-26T19:23:58.481Z,3.20
2024-01-26T19:26:25.078Z,3.00
2024-01-26T19:28:51.507Z,3.00
2024-01-26T19:31:18.057Z,3.00
2024-01-26T19:33:44.636Z,3.00
2024-01-26T19:36:12.370Z,2.60
2024-01-26T19:38:40.043Z,3.00
2024-01-26T19:41:06.880Z,3.25
2024-01-26T19:43:35.406Z,3.00
2024-01-26T19:46:02.077Z,3.20
2024-01-26T19:48:28.762Z,4.00
2024-01-26T19:50:55.364Z,3.00
2024-01-26T19:53:21.933Z,4.00
2024-01-26T19:55:50.094Z,2.00
2024-01-26T19:58:16.753Z,4.00
2024-01-26T20:00:43.223Z,3.00
2024-01-26T20:03:12.895Z,3.20
2024-01-26T20:05:39.633Z,4.00
2024-01-26T20:08:07.097Z,3.00
2024-01-26T20:10:34.216Z,1.50
2024-01-26T20:13:00.676Z,2.50
2024-01-26T20:15:28.241Z,1.60
2024-01-26T20:17:54.928Z,0.40
2024-01-26T20:20:21.583Z,1.00
2024-01-26T20:22:48.312Z,2.00
2024-01-26T20:25:15.292Z,1.00
2024-01-26T20:27:41.981Z,1.60
2024-01-26T20:30:09.120Z,1.00
2024-01-26T20:32:35.687Z,2.00
2024-01-26T20:35:02.594Z,2.00
2024-01-26T20:37:30.728Z,1.00
2024-01-26T20:39:57.193Z,2.00
2024-01-26T20:42:26.744Z,2.00
2024-01-26T20:44:53.865Z,2.00
2024-01-26T20:47:25.312Z,2.00
2024-01-26T20:49:51.871Z,1.00
2024-01-26T20:52:18.477Z,2.00
2024-01-26T20:54:44.928Z,0.00
2024-01-26T20:57:11.381Z,2.00
2024-01-26T20:59:39.030Z,1.00
2024-01-26T21:02:06.181Z,2.00
2024-01-26T21:04:32.715Z,2.40
2024-01-26T21:06:59.449Z,1.50
2024-01-26T21:09:26.030Z,6.00
2024-01-26T21:11:52.540Z,3.00
2024-01-26T21:14:18.944Z,2.60
2024-01-26T21:16:45.348Z,3.00
2024-01-26T21:19:12.011Z,3.00
2024-01-26T21:21:38.613Z,2.75
2024-01-26T21:24:07.425Z,2.00
2024-01-26T21:26:34.160Z,2.50
2024-01-26T21:29:00.752Z,1.00
2024-01-26T21:31:30.088Z,3.00
2024-01-26T21:33:56.649Z,1.20
2024-01-26T21:36:24.263Z,2.20
2024-01-26T21:38:51.133Z,0.80
2024-01-26T21:41:17.660Z,2.00
2024-01-26T21:43:46.541Z,2.00
2024-01-26T21:46:12.998Z,2.00
2024-01-26T21:48:39.863Z,2.00
2024-01-26T21:51:06.679Z,1.40
2024-01-26T21:53:33.535Z,2.00
2024-01-26T21:56:00.660Z,3.00
2024-01-26T21:58:27.114Z,3.00
2024-01-26T22:00:55.570Z,2.00
2024-01-26T22:03:22.161Z,3.00
2024-01-26T22:05:48.825Z,2.75
2024-01-26T22:08:15.529Z,2.00
2024-01-26T22:10:41.940Z,3.00
2024-01-26T22:13:08.357Z,3.00
2024-01-26T22:15:34.890Z,2.60
2024-01-26T22:18:01.592Z,1.00
2024-01-26T22:20:28.317Z,2.00
2024-01-26T22:22:54.723Z,2.00
2024-01-26T22:25:24.820Z,1.80
2024-01-26T22:27:52.567Z,1.20
2024-01-26T22:30:19.675Z,2.00
2024-01-26T22:32:46.318Z,3.00
2024-01-26T22:35:12.840Z,1.50
2024-01-26T22:37:39.282Z,2.00
2024-01-26T22:40:06.144Z,3.00
2024-01-26T22:42:32.597Z,3.00
2024-01-26T22:44:59.156Z,1.40
2024-01-26T22:47:25.608Z,3.25
2024-01-26T22:49:52.136Z,3.40
2024-01-26T22:52:18.619Z,3.25
2024-01-26T22:54:45.167Z,3.00
2024-01-26T22:57:11.675Z,3.00
2024-01-26T22:59:38.197Z,2.00
2024-01-26T23:02:05.419Z,2.00
2024-01-26T23:04:31.888Z,2.00
2024-01-26T23:06:58.394Z,2.00
2024-01-26T23:09:24.918Z,1.25
2024-01-26T23:11:51.525Z,2.00
2024-01-26T23:14:18.005Z,1.00
2024-01-26T23:16:44.411Z,2.00
2024-01-26T23:19:11.028Z,1.20
2024-01-26T23:21:37.636Z,2.00
2024-01-26T23:24:04.146Z,1.40
2024-01-26T23:26:30.714Z,1.60
2024-01-26T23:28:57.237Z,2.00
2024-01-26T23:31:23.809Z,2.00
2024-01-26T23:33:50.394Z,2.50
2024-01-26T23:36:17.692Z,1.20
2024-01-26T23:38:44.279Z,2.00
2024-01-26T23:41:12.710Z,2.60
2024-01-26T23:43:39.952Z,2.00
2024-01-26T23:46:06.892Z,2.50
2024-01-26T23:48:33.446Z,1.00
2024-01-26T23:51:02.731Z,1.00
2024-01-26T23:53:29.205Z,2.00
2024-01-26T23:55:56.079Z,1.50
2024-01-26T23:58:22.492Z,2.00
